sensor_id;sensor_type;location;lat;lon;timestamp;temperature;humidity
38500;DHT22;24269;51.894;4.622;2022-08-20T00:00:36;19.60;99.90
38500;DHT22;24269;51.894;4.622;2022-08-20T00:03:09;19.50;99.90
38500;DHT22;24269;51.894;4.622;2022-08-20T00:05:38;19.50;99.90
38500;DHT22;24269;51.894;4.622;2022-08-20T00:08:04;19.50;99.90
38500;DHT22;24269;51.894;4.622;2022-08-20T00:10:32;19.50;99.90
38500;DHT22;24269;51.894;4.622;2022-08-20T00:12:58;19.50;99.90
38500;DHT22;24269;51.894;4.622;2022-08-20T00:15:30;19.50;99.90
38500;DHT22;24269;51.894;4.622;2022-08-20T00:17:57;19.50;99.90
38500;DHT22;24269;51.894;4.622;2022-08-20T00:20:26;19.50;99.90
38500;DHT22;24269;51.894;4.622;2022-08-20T00:22:54;19.50;99.90
38500;DHT22;24269;51.894;4.622;2022-08-20T00:25:20;19.50;99.90
38500;DHT22;24269;51.894;4.622;2022-08-20T00:27:45;19.50;99.90
38500;DHT22;24269;51.894;4.622;2022-08-20T00:30:13;19.50;99.90
38500;DHT22;24269;51.894;4.622;2022-08-20T00:35:42;19.50;99.90
38500;DHT22;24269;51.894;4.622;2022-08-20T00:38:08;19.40;99.90
38500;DHT22;24269;51.894;4.622;2022-08-20T00:40:43;19.40;99.90
38500;DHT22;24269;51.894;4.622;2022-08-20T00:43:38;19.40;99.90
38500;DHT22;24269;51.894;4.622;2022-08-20T00:48:37;19.40;99.90
38500;DHT22;24269;51.894;4.622;2022-08-20T00:51:13;19.30;99.90
38500;DHT22;24269;51.894;4.622;2022-08-20T00:53:40;19.30;99.90
38500;DHT22;24269;51.894;4.622;2022-08-20T00:56:07;19.30;99.90
38500;DHT22;24269;51.894;4.622;2022-08-20T00:58:35;19.30;99.90
38500;DHT22;24269;51.894;4.622;2022-08-20T01:01:02;19.30;99.90
38500;DHT22;24269;51.894;4.622;2022-08-20T01:03:29;19.20;99.90
38500;DHT22;24269;51.894;4.622;2022-08-20T01:05:54;19.10;99.90
38500;DHT22;24269;51.894;4.622;2022-08-20T01:08:21;19.10;99.90
38500;DHT22;24269;51.894;4.622;2022-08-20T01:10:49;19.10;99.90
38500;DHT22;24269;51.894;4.622;2022-08-20T01:13:23;19.00;99.90
38500;DHT22;24269;51.894;4.622;2022-08-20T01:15:52;19.00;99.90
38500;DHT22;24269;51.894;4.622;2022-08-20T01:18:23;18.90;99.90
38500;DHT22;24269;51.894;4.622;2022-08-20T01:20:58;18.90;99.90
38500;DHT22;24269;51.894;4.622;2022-08-20T01:23:30;18.90;99.90
38500;DHT22;24269;51.894;4.622;2022-08-20T01:31:04;18.80;99.90
38500;DHT22;24269;51.894;4.622;2022-08-20T01:33:30;18.80;99.90
38500;DHT22;24269;51.894;4.622;2022-08-20T01:35:56;18.80;99.90
38500;DHT22;24269;51.894;4.622;2022-08-20T01:38:22;18.70;99.90
38500;DHT22;24269;51.894;4.622;2022-08-20T01:43:49;18.70;99.90
38500;DHT22;24269;51.894;4.622;2022-08-20T01:46:18;18.70;99.90
38500;DHT22;24269;51.894;4.622;2022-08-20T01:48:44;18.60;99.90
38500;DHT22;24269;51.894;4.622;2022-08-20T01:51:22;18.60;99.90
38500;DHT22;24269;51.894;4.622;2022-08-20T01:53:51;18.60;99.90
38500;DHT22;24269;51.894;4.622;2022-08-20T01:56:21;18.50;99.90
38500;DHT22;24269;51.894;4.622;2022-08-20T01:58:49;18.40;99.90
38500;DHT22;24269;51.894;4.622;2022-08-20T02:03:47;18.30;99.90
38500;DHT22;24269;51.894;4.622;2022-08-20T02:06:13;18.30;99.90
38500;DHT22;24269;51.894;4.622;2022-08-20T02:08:38;18.30;99.90
38500;DHT22;24269;51.894;4.622;2022-08-20T02:11:04;18.30;99.90
38500;DHT22;24269;51.894;4.622;2022-08-20T02:13:30;18.30;99.90
38500;DHT22;24269;51.894;4.622;2022-08-20T02:15:56;18.20;99.90
38500;DHT22;24269;51.894;4.622;2022-08-20T02:18:22;18.20;99.90
38500;DHT22;24269;51.894;4.622;2022-08-20T02:20:49;18.20;99.90
38500;DHT22;24269;51.894;4.622;2022-08-20T02:23:15;18.20;99.90
38500;DHT22;24269;51.894;4.622;2022-08-20T02:25:43;18.20;99.90
38500;DHT22;24269;51.894;4.622;2022-08-20T02:28:12;18.20;99.90
38500;DHT22;24269;51.894;4.622;2022-08-20T02:30:42;18.20;99.90
38500;DHT22;24269;51.894;4.622;2022-08-20T02:33:11;18.20;99.90
38500;DHT22;24269;51.894;4.622;2022-08-20T02:35:38;18.10;99.90
38500;DHT22;24269;51.894;4.622;2022-08-20T02:38:04;18.10;99.90
38500;DHT22;24269;51.894;4.622;2022-08-20T02:40:30;18.10;99.90
38500;DHT22;24269;51.894;4.622;2022-08-20T02:42:56;18.10;99.90
38500;DHT22;24269;51.894;4.622;2022-08-20T02:45:22;18.00;99.90
38500;DHT22;24269;51.894;4.622;2022-08-20T02:47:49;18.00;99.90
38500;DHT22;24269;51.894;4.622;2022-08-20T02:50:18;18.00;99.90
38500;DHT22;24269;51.894;4.622;2022-08-20T02:52:44;18.00;99.90
38500;DHT22;24269;51.894;4.622;2022-08-20T02:55:12;17.90;99.90
38500;DHT22;24269;51.894;4.622;2022-08-20T02:57:38;17.90;99.90
38500;DHT22;24269;51.894;4.622;2022-08-20T03:00:10;17.90;99.90
38500;DHT22;24269;51.894;4.622;2022-08-20T03:02:39;17.90;99.90
38500;DHT22;24269;51.894;4.622;2022-08-20T03:05:05;17.90;99.90
38500;DHT22;24269;51.894;4.622;2022-08-20T03:07:52;17.90;99.90
38500;DHT22;24269;51.894;4.622;2022-08-20T03:10:26;17.90;99.90
38500;DHT22;24269;51.894;4.622;2022-08-20T03:12:52;17.90;99.90
38500;DHT22;24269;51.894;4.622;2022-08-20T03:15:18;17.90;99.90
38500;DHT22;24269;51.894;4.622;2022-08-20T03:17:44;17.90;99.90
38500;DHT22;24269;51.894;4.622;2022-08-20T03:20:11;17.90;99.90
38500;DHT22;24269;51.894;4.622;2022-08-20T03:22:37;17.90;99.90
38500;DHT22;24269;51.894;4.622;2022-08-20T03:25:03;17.90;99.90
38500;DHT22;24269;51.894;4.622;2022-08-20T03:27:29;17.90;99.90
38500;DHT22;24269;51.894;4.622;2022-08-20T03:29:55;17.90;99.90
38500;DHT22;24269;51.894;4.622;2022-08-20T03:32:21;17.90;99.90
38500;DHT22;24269;51.894;4.622;2022-08-20T03:34:47;17.90;99.90
38500;DHT22;24269;51.894;4.622;2022-08-20T03:37:12;17.90;99.90
38500;DHT22;24269;51.894;4.622;2022-08-20T03:39:38;17.70;99.90
38500;DHT22;24269;51.894;4.622;2022-08-20T03:42:04;17.70;99.90
38500;DHT22;24269;51.894;4.622;2022-08-20T03:44:30;17.70;99.90
38500;DHT22;24269;51.894;4.622;2022-08-20T03:46:55;17.70;99.90
38500;DHT22;24269;51.894;4.622;2022-08-20T03:49:21;17.70;99.90
38500;DHT22;24269;51.894;4.622;2022-08-20T03:51:49;17.60;99.90
38500;DHT22;24269;51.894;4.622;2022-08-20T03:54:16;17.60;99.90
38500;DHT22;24269;51.894;4.622;2022-08-20T03:56:41;17.50;99.90
38500;DHT22;24269;51.894;4.622;2022-08-20T03:59:07;17.50;99.90
38500;DHT22;24269;51.894;4.622;2022-08-20T04:01:33;17.40;99.90
38500;DHT22;24269;51.894;4.622;2022-08-20T04:04:00;17.40;99.90
38500;DHT22;24269;51.894;4.622;2022-08-20T04:06:26;17.30;99.90
38500;DHT22;24269;51.894;4.622;2022-08-20T04:08:54;17.20;99.90
38500;DHT22;24269;51.894;4.622;2022-08-20T04:11:19;17.20;99.90
38500;DHT22;24269;51.894;4.622;2022-08-20T04:13:45;17.10;99.90
38500;DHT22;24269;51.894;4.622;2022-08-20T04:16:10;17.00;99.90
38500;DHT22;24269;51.894;4.622;2022-08-20T04:18:36;16.90;99.90
38500;DHT22;24269;51.894;4.622;2022-08-20T04:21:03;16.90;99.90
38500;DHT22;24269;51.894;4.622;2022-08-20T04:23:29;16.90;99.90
38500;DHT22;24269;51.894;4.622;2022-08-20T04:25:56;16.80;99.90
38500;DHT22;24269;51.894;4.622;2022-08-20T04:28:23;16.80;99.90
38500;DHT22;24269;51.894;4.622;2022-08-20T04:30:54;16.80;99.90
38500;DHT22;24269;51.894;4.622;2022-08-20T04:33:21;16.70;99.90
38500;DHT22;24269;51.894;4.622;2022-08-20T04:35:48;16.70;99.90
38500;DHT22;24269;51.894;4.622;2022-08-20T04:38:16;16.70;99.90
38500;DHT22;24269;51.894;4.622;2022-08-20T04:40:45;16.60;99.90
38500;DHT22;24269;51.894;4.622;2022-08-20T04:43:31;16.60;99.90
38500;DHT22;24269;51.894;4.622;2022-08-20T04:45:59;16.60;99.90
38500;DHT22;24269;51.894;4.622;2022-08-20T04:48:27;16.60;99.90
38500;DHT22;24269;51.894;4.622;2022-08-20T04:50:55;16.50;99.90
38500;DHT22;24269;51.894;4.622;2022-08-20T04:53:24;16.50;99.90
38500;DHT22;24269;51.894;4.622;2022-08-20T04:55:51;16.50;99.90
38500;DHT22;24269;51.894;4.622;2022-08-20T04:58:29;16.50;99.90
38500;DHT22;24269;51.894;4.622;2022-08-20T05:00:57;16.50;99.90
38500;DHT22;24269;51.894;4.622;2022-08-20T05:03:24;16.40;99.90
38500;DHT22;24269;51.894;4.622;2022-08-20T05:05:52;16.40;99.90
38500;DHT22;24269;51.894;4.622;2022-08-20T05:08:19;16.40;99.90
38500;DHT22;24269;51.894;4.622;2022-08-20T05:10:48;16.40;99.90
38500;DHT22;24269;51.894;4.622;2022-08-20T05:13:15;16.40;99.90
38500;DHT22;24269;51.894;4.622;2022-08-20T05:15:41;16.40;99.90
38500;DHT22;24269;51.894;4.622;2022-08-20T05:18:07;16.40;99.90
38500;DHT22;24269;51.894;4.622;2022-08-20T05:20:40;16.40;99.90
38500;DHT22;24269;51.894;4.622;2022-08-20T05:23:10;16.40;99.90
38500;DHT22;24269;51.894;4.622;2022-08-20T05:25:38;16.40;99.90
38500;DHT22;24269;51.894;4.622;2022-08-20T05:28:07;16.50;99.90
38500;DHT22;24269;51.894;4.622;2022-08-20T05:30:36;16.40;99.90
38500;DHT22;24269;51.894;4.622;2022-08-20T05:33:03;16.50;99.90
38500;DHT22;24269;51.894;4.622;2022-08-20T05:35:30;16.50;99.90
38500;DHT22;24269;51.894;4.622;2022-08-20T05:38:00;16.50;99.90
38500;DHT22;24269;51.894;4.622;2022-08-20T05:40:26;16.50;99.90
38500;DHT22;24269;51.894;4.622;2022-08-20T05:42:52;16.50;99.90
38500;DHT22;24269;51.894;4.622;2022-08-20T05:45:19;16.50;99.90
38500;DHT22;24269;51.894;4.622;2022-08-20T05:47:45;16.50;99.90
38500;DHT22;24269;51.894;4.622;2022-08-20T05:50:16;16.50;99.90
38500;DHT22;24269;51.894;4.622;2022-08-20T05:52:42;16.60;99.90
38500;DHT22;24269;51.894;4.622;2022-08-20T05:55:10;16.60;99.90
38500;DHT22;24269;51.894;4.622;2022-08-20T05:57:37;16.60;99.90
38500;DHT22;24269;51.894;4.622;2022-08-20T06:00:07;16.60;99.90
38500;DHT22;24269;51.894;4.622;2022-08-20T06:02:33;16.70;99.90
38500;DHT22;24269;51.894;4.622;2022-08-20T06:05:17;16.70;99.90
38500;DHT22;24269;51.894;4.622;2022-08-20T06:07:44;16.70;99.90
38500;DHT22;24269;51.894;4.622;2022-08-20T06:10:11;16.70;99.90
38500;DHT22;24269;51.894;4.622;2022-08-20T06:12:37;16.80;99.90
38500;DHT22;24269;51.894;4.622;2022-08-20T06:15:06;16.80;99.90
38500;DHT22;24269;51.894;4.622;2022-08-20T06:17:32;16.90;99.90
38500;DHT22;24269;51.894;4.622;2022-08-20T06:20:04;16.90;99.90
38500;DHT22;24269;51.894;4.622;2022-08-20T06:22:31;16.90;99.90
38500;DHT22;24269;51.894;4.622;2022-08-20T06:24:57;17.00;99.90
38500;DHT22;24269;51.894;4.622;2022-08-20T06:27:22;17.00;99.90
38500;DHT22;24269;51.894;4.622;2022-08-20T06:29:49;17.00;99.90
38500;DHT22;24269;51.894;4.622;2022-08-20T06:32:15;17.00;99.90
38500;DHT22;24269;51.894;4.622;2022-08-20T06:34:42;17.10;99.90
38500;DHT22;24269;51.894;4.622;2022-08-20T06:37:22;17.10;99.90
38500;DHT22;24269;51.894;4.622;2022-08-20T06:39:49;17.20;99.90
38500;DHT22;24269;51.894;4.622;2022-08-20T06:42:15;17.20;99.90
38500;DHT22;24269;51.894;4.622;2022-08-20T06:44:40;17.30;99.90
38500;DHT22;24269;51.894;4.622;2022-08-20T06:47:06;17.30;99.90
38500;DHT22;24269;51.894;4.622;2022-08-20T06:49:35;17.40;99.90
38500;DHT22;24269;51.894;4.622;2022-08-20T06:52:03;17.40;99.90
38500;DHT22;24269;51.894;4.622;2022-08-20T06:54:29;17.40;99.90
38500;DHT22;24269;51.894;4.622;2022-08-20T06:56:54;17.50;99.90
38500;DHT22;24269;51.894;4.622;2022-08-20T06:59:20;17.50;99.90
38500;DHT22;24269;51.894;4.622;2022-08-20T07:01:46;17.60;99.90
38500;DHT22;24269;51.894;4.622;2022-08-20T07:04:14;17.60;99.90
38500;DHT22;24269;51.894;4.622;2022-08-20T07:06:41;17.70;99.90
38500;DHT22;24269;51.894;4.622;2022-08-20T07:09:06;17.80;99.90
38500;DHT22;24269;51.894;4.622;2022-08-20T07:11:32;17.80;99.90
38500;DHT22;24269;51.894;4.622;2022-08-20T07:14:00;17.90;99.90
38500;DHT22;24269;51.894;4.622;2022-08-20T07:16:30;17.80;99.90
38500;DHT22;24269;51.894;4.622;2022-08-20T07:18:56;18.00;99.90
38500;DHT22;24269;51.894;4.622;2022-08-20T07:21:23;18.10;99.90
38500;DHT22;24269;51.894;4.622;2022-08-20T07:23:48;18.10;99.90
38500;DHT22;24269;51.894;4.622;2022-08-20T07:26:14;18.20;99.90
38500;DHT22;24269;51.894;4.622;2022-08-20T07:28:40;18.40;99.90
38500;DHT22;24269;51.894;4.622;2022-08-20T07:31:06;18.50;99.90
38500;DHT22;24269;51.894;4.622;2022-08-20T07:33:50;18.60;99.90
38500;DHT22;24269;51.894;4.622;2022-08-20T07:36:16;18.70;99.90
38500;DHT22;24269;51.894;4.622;2022-08-20T07:38:42;18.80;99.90
38500;DHT22;24269;51.894;4.622;2022-08-20T07:41:11;18.90;99.90
38500;DHT22;24269;51.894;4.622;2022-08-20T07:43:37;19.00;99.90
38500;DHT22;24269;51.894;4.622;2022-08-20T07:46:04;19.10;99.90
38500;DHT22;24269;51.894;4.622;2022-08-20T07:48:35;19.20;99.90
38500;DHT22;24269;51.894;4.622;2022-08-20T07:51:03;19.40;99.90
38500;DHT22;24269;51.894;4.622;2022-08-20T07:53:29;19.50;99.90
38500;DHT22;24269;51.894;4.622;2022-08-20T07:55:55;19.60;99.90
38500;DHT22;24269;51.894;4.622;2022-08-20T07:58:21;19.70;99.90
38500;DHT22;24269;51.894;4.622;2022-08-20T08:00:49;19.90;99.90
38500;DHT22;24269;51.894;4.622;2022-08-20T08:03:15;20.20;99.90
38500;DHT22;24269;51.894;4.622;2022-08-20T08:05:44;20.40;99.90
38500;DHT22;24269;51.894;4.622;2022-08-20T08:08:14;20.70;99.90
38500;DHT22;24269;51.894;4.622;2022-08-20T08:10:42;21.00;99.90
38500;DHT22;24269;51.894;4.622;2022-08-20T08:13:09;21.20;99.90
38500;DHT22;24269;51.894;4.622;2022-08-20T08:15:39;21.30;99.90
38500;DHT22;24269;51.894;4.622;2022-08-20T08:18:09;21.40;99.90
38500;DHT22;24269;51.894;4.622;2022-08-20T08:20:39;21.30;99.90
38500;DHT22;24269;51.894;4.622;2022-08-20T08:23:09;21.30;99.90
38500;DHT22;24269;51.894;4.622;2022-08-20T08:25:38;21.30;99.90
38500;DHT22;24269;51.894;4.622;2022-08-20T08:28:04;21.20;99.90
38500;DHT22;24269;51.894;4.622;2022-08-20T08:30:30;21.30;99.90
38500;DHT22;24269;51.894;4.622;2022-08-20T08:32:56;21.30;99.90
38500;DHT22;24269;51.894;4.622;2022-08-20T08:35:40;21.40;99.90
38500;DHT22;24269;51.894;4.622;2022-08-20T08:38:11;21.40;99.90
38500;DHT22;24269;51.894;4.622;2022-08-20T08:40:37;21.50;99.90
38500;DHT22;24269;51.894;4.622;2022-08-20T08:43:03;21.60;99.90
38500;DHT22;24269;51.894;4.622;2022-08-20T08:45:44;21.70;99.90
38500;DHT22;24269;51.894;4.622;2022-08-20T08:48:15;21.80;99.90
38500;DHT22;24269;51.894;4.622;2022-08-20T08:50:45;21.90;99.90
38500;DHT22;24269;51.894;4.622;2022-08-20T08:53:33;22.10;99.90
38500;DHT22;24269;51.894;4.622;2022-08-20T08:56:00;22.10;99.90
38500;DHT22;24269;51.894;4.622;2022-08-20T08:58:26;22.30;99.90
38500;DHT22;24269;51.894;4.622;2022-08-20T09:00:52;22.40;99.90
38500;DHT22;24269;51.894;4.622;2022-08-20T09:03:30;22.50;99.90
38500;DHT22;24269;51.894;4.622;2022-08-20T09:05:59;22.60;99.90
38500;DHT22;24269;51.894;4.622;2022-08-20T09:08:31;22.60;99.90
38500;DHT22;24269;51.894;4.622;2022-08-20T09:11:06;22.70;99.90
38500;DHT22;24269;51.894;4.622;2022-08-20T09:13:32;22.90;99.90
38500;DHT22;24269;51.894;4.622;2022-08-20T09:15:58;23.00;99.90
38500;DHT22;24269;51.894;4.622;2022-08-20T09:18:24;23.00;99.90
38500;DHT22;24269;51.894;4.622;2022-08-20T09:20:50;23.10;99.90
38500;DHT22;24269;51.894;4.622;2022-08-20T09:23:15;23.20;99.90
38500;DHT22;24269;51.894;4.622;2022-08-20T09:25:41;23.30;99.90
38500;DHT22;24269;51.894;4.622;2022-08-20T09:28:07;23.40;99.90
38500;DHT22;24269;51.894;4.622;2022-08-20T09:30:33;23.60;99.90
38500;DHT22;24269;51.894;4.622;2022-08-20T09:32:59;23.60;99.90
38500;DHT22;24269;51.894;4.622;2022-08-20T09:35:26;23.60;99.90
38500;DHT22;24269;51.894;4.622;2022-08-20T09:37:51;23.50;99.90
38500;DHT22;24269;51.894;4.622;2022-08-20T09:40:18;23.40;99.90
38500;DHT22;24269;51.894;4.622;2022-08-20T09:42:44;23.20;99.90
38500;DHT22;24269;51.894;4.622;2022-08-20T09:45:11;23.10;99.90
38500;DHT22;24269;51.894;4.622;2022-08-20T09:47:37;23.10;99.90
38500;DHT22;24269;51.894;4.622;2022-08-20T09:50:04;23.10;99.90
38500;DHT22;24269;51.894;4.622;2022-08-20T09:52:32;23.00;99.90
38500;DHT22;24269;51.894;4.622;2022-08-20T09:57:55;22.90;99.90
38500;DHT22;24269;51.894;4.622;2022-08-20T10:03:33;22.60;99.90
38500;DHT22;24269;51.894;4.622;2022-08-20T10:05:59;22.70;99.90
38500;DHT22;24269;51.894;4.622;2022-08-20T10:08:25;22.70;99.90
38500;DHT22;24269;51.894;4.622;2022-08-20T10:10:50;22.70;99.90
38500;DHT22;24269;51.894;4.622;2022-08-20T10:13:16;22.60;99.90
38500;DHT22;24269;51.894;4.622;2022-08-20T10:15:42;22.60;99.90
38500;DHT22;24269;51.894;4.622;2022-08-20T10:18:07;22.70;99.90
38500;DHT22;24269;51.894;4.622;2022-08-20T10:20:34;22.80;99.90
38500;DHT22;24269;51.894;4.622;2022-08-20T10:23:00;22.80;99.90
38500;DHT22;24269;51.894;4.622;2022-08-20T10:25:26;22.80;99.90
38500;DHT22;24269;51.894;4.622;2022-08-20T10:27:53;22.90;99.90
38500;DHT22;24269;51.894;4.622;2022-08-20T10:30:19;23.00;99.90
38500;DHT22;24269;51.894;4.622;2022-08-20T10:32:44;23.20;99.90
38500;DHT22;24269;51.894;4.622;2022-08-20T10:35:10;23.30;99.90
38500;DHT22;24269;51.894;4.622;2022-08-20T10:37:36;23.30;99.90
38500;DHT22;24269;51.894;4.622;2022-08-20T10:40:02;23.30;99.90
38500;DHT22;24269;51.894;4.622;2022-08-20T10:42:28;23.30;99.90
38500;DHT22;24269;51.894;4.622;2022-08-20T10:44:53;23.30;99.90
38500;DHT22;24269;51.894;4.622;2022-08-20T10:47:31;23.10;99.90
38500;DHT22;24269;51.894;4.622;2022-08-20T10:49:59;23.20;99.90
38500;DHT22;24269;51.894;4.622;2022-08-20T10:52:26;23.30;99.90
38500;DHT22;24269;51.894;4.622;2022-08-20T10:54:52;23.50;99.90
38500;DHT22;24269;51.894;4.622;2022-08-20T10:57:27;23.60;99.90
38500;DHT22;24269;51.894;4.622;2022-08-20T10:59:55;23.70;99.90
38500;DHT22;24269;51.894;4.622;2022-08-20T11:02:21;23.90;99.90
38500;DHT22;24269;51.894;4.622;2022-08-20T11:04:47;24.00;99.90
38500;DHT22;24269;51.894;4.622;2022-08-20T11:09:39;24.10;99.90
38500;DHT22;24269;51.894;4.622;2022-08-20T11:12:05;24.00;99.90
38500;DHT22;24269;51.894;4.622;2022-08-20T11:14:31;23.90;99.90
38500;DHT22;24269;51.894;4.622;2022-08-20T11:16:58;23.80;99.90
38500;DHT22;24269;51.894;4.622;2022-08-20T11:19:23;23.70;99.90
38500;DHT22;24269;51.894;4.622;2022-08-20T11:21:49;23.70;99.90
38500;DHT22;24269;51.894;4.622;2022-08-20T11:24:15;23.70;99.90
38500;DHT22;24269;51.894;4.622;2022-08-20T11:26:40;23.70;99.90
38500;DHT22;24269;51.894;4.622;2022-08-20T11:29:06;23.70;99.90
38500;DHT22;24269;51.894;4.622;2022-08-20T11:31:31;23.70;99.90
38500;DHT22;24269;51.894;4.622;2022-08-20T11:33:57;23.70;99.90
38500;DHT22;24269;51.894;4.622;2022-08-20T11:36:23;23.70;99.90
38500;DHT22;24269;51.894;4.622;2022-08-20T11:38:51;23.70;99.90
38500;DHT22;24269;51.894;4.622;2022-08-20T11:41:17;23.80;99.90
38500;DHT22;24269;51.894;4.622;2022-08-20T11:43:42;24.10;99.90
38500;DHT22;24269;51.894;4.622;2022-08-20T11:46:08;24.40;99.90
38500;DHT22;24269;51.894;4.622;2022-08-20T11:48:34;24.50;99.90
38500;DHT22;24269;51.894;4.622;2022-08-20T11:50:59;24.40;99.90
38500;DHT22;24269;51.894;4.622;2022-08-20T11:53:25;24.10;99.90
38500;DHT22;24269;51.894;4.622;2022-08-20T11:55:51;23.80;99.90
38500;DHT22;24269;51.894;4.622;2022-08-20T11:58:17;23.70;99.90
38500;DHT22;24269;51.894;4.622;2022-08-20T12:00:42;23.60;99.90
38500;DHT22;24269;51.894;4.622;2022-08-20T12:03:08;23.70;99.90
38500;DHT22;24269;51.894;4.622;2022-08-20T12:05:35;23.90;99.90
38500;DHT22;24269;51.894;4.622;2022-08-20T12:08:01;24.20;99.90
38500;DHT22;24269;51.894;4.622;2022-08-20T12:10:28;24.60;99.90
38500;DHT22;24269;51.894;4.622;2022-08-20T12:12:54;25.00;99.90
38500;DHT22;24269;51.894;4.622;2022-08-20T12:15:20;25.20;99.90
38500;DHT22;24269;51.894;4.622;2022-08-20T12:17:46;25.10;99.90
38500;DHT22;24269;51.894;4.622;2022-08-20T12:20:12;24.80;99.90
38500;DHT22;24269;51.894;4.622;2022-08-20T12:22:39;24.70;99.90
38500;DHT22;24269;51.894;4.622;2022-08-20T12:25:06;24.80;99.90
38500;DHT22;24269;51.894;4.622;2022-08-20T12:27:37;25.10;99.90
38500;DHT22;24269;51.894;4.622;2022-08-20T12:30:08;25.20;99.90
38500;DHT22;24269;51.894;4.622;2022-08-20T12:32:34;25.00;99.90
38500;DHT22;24269;51.894;4.622;2022-08-20T12:35:01;24.80;99.90
38500;DHT22;24269;51.894;4.622;2022-08-20T12:37:29;24.60;99.90
38500;DHT22;24269;51.894;4.622;2022-08-20T12:39:57;24.40;99.90
38500;DHT22;24269;51.894;4.622;2022-08-20T12:42:23;24.30;99.90
38500;DHT22;24269;51.894;4.622;2022-08-20T12:44:49;24.20;99.90
38500;DHT22;24269;51.894;4.622;2022-08-20T12:47:24;24.30;99.90
38500;DHT22;24269;51.894;4.622;2022-08-20T12:49:54;24.40;99.90
38500;DHT22;24269;51.894;4.622;2022-08-20T12:52:22;24.50;99.90
38500;DHT22;24269;51.894;4.622;2022-08-20T12:54:48;24.80;99.90
38500;DHT22;24269;51.894;4.622;2022-08-20T12:57:39;24.90;99.90
38500;DHT22;24269;51.894;4.622;2022-08-20T13:00:12;25.10;99.90
38500;DHT22;24269;51.894;4.622;2022-08-20T13:02:39;25.40;99.90
38500;DHT22;24269;51.894;4.622;2022-08-20T13:05:10;25.70;99.90
38500;DHT22;24269;51.894;4.622;2022-08-20T13:07:37;25.80;99.90
38500;DHT22;24269;51.894;4.622;2022-08-20T13:10:04;26.10;99.90
38500;DHT22;24269;51.894;4.622;2022-08-20T13:12:31;26.30;99.90
38500;DHT22;24269;51.894;4.622;2022-08-20T13:14:57;26.50;99.90
38500;DHT22;24269;51.894;4.622;2022-08-20T13:17:22;26.70;99.90
38500;DHT22;24269;51.894;4.622;2022-08-20T13:19:48;26.30;99.90
38500;DHT22;24269;51.894;4.622;2022-08-20T13:22:14;26.10;99.90
38500;DHT22;24269;51.894;4.622;2022-08-20T13:24:41;26.20;99.90
38500;DHT22;24269;51.894;4.622;2022-08-20T13:27:10;26.20;99.90
38500;DHT22;24269;51.894;4.622;2022-08-20T13:29:36;25.90;99.90
38500;DHT22;24269;51.894;4.622;2022-08-20T13:32:02;25.40;99.90
38500;DHT22;24269;51.894;4.622;2022-08-20T13:34:27;25.60;99.90
38500;DHT22;24269;51.894;4.622;2022-08-20T13:36:53;25.70;99.90
38500;DHT22;24269;51.894;4.622;2022-08-20T13:39:20;25.90;99.90
38500;DHT22;24269;51.894;4.622;2022-08-20T13:41:47;26.30;99.90
38500;DHT22;24269;51.894;4.622;2022-08-20T13:44:12;26.50;99.90
38500;DHT22;24269;51.894;4.622;2022-08-20T13:46:38;26.30;99.90
38500;DHT22;24269;51.894;4.622;2022-08-20T13:49:04;26.50;99.90
38500;DHT22;24269;51.894;4.622;2022-08-20T13:51:29;26.50;99.90
38500;DHT22;24269;51.894;4.622;2022-08-20T13:53:55;26.70;99.90
38500;DHT22;24269;51.894;4.622;2022-08-20T13:56:21;27.00;99.90
38500;DHT22;24269;51.894;4.622;2022-08-20T13:58:46;27.10;99.90
38500;DHT22;24269;51.894;4.622;2022-08-20T14:01:12;27.40;99.90
38500;DHT22;24269;51.894;4.622;2022-08-20T14:03:38;27.70;99.90
38500;DHT22;24269;51.894;4.622;2022-08-20T14:06:03;27.70;99.90
38500;DHT22;24269;51.894;4.622;2022-08-20T14:08:29;27.20;99.90
38500;DHT22;24269;51.894;4.622;2022-08-20T14:10:55;27.10;99.90
38500;DHT22;24269;51.894;4.622;2022-08-20T14:13:23;27.20;99.90
38500;DHT22;24269;51.894;4.622;2022-08-20T14:15:50;27.10;99.90
38500;DHT22;24269;51.894;4.622;2022-08-20T14:18:16;27.30;99.90
38500;DHT22;24269;51.894;4.622;2022-08-20T14:20:43;27.50;99.90
38500;DHT22;24269;51.894;4.622;2022-08-20T14:23:08;28.00;99.90
38500;DHT22;24269;51.894;4.622;2022-08-20T14:25:35;28.40;99.90
38500;DHT22;24269;51.894;4.622;2022-08-20T14:28:15;28.50;99.90
38500;DHT22;24269;51.894;4.622;2022-08-20T14:30:42;28.40;99.90
38500;DHT22;24269;51.894;4.622;2022-08-20T14:33:08;28.40;99.90
38500;DHT22;24269;51.894;4.622;2022-08-20T14:35:34;28.50;99.90
38500;DHT22;24269;51.894;4.622;2022-08-20T14:37:59;28.70;99.90
38500;DHT22;24269;51.894;4.622;2022-08-20T14:40:26;28.70;99.90
38500;DHT22;24269;51.894;4.622;2022-08-20T14:42:53;28.70;99.90
38500;DHT22;24269;51.894;4.622;2022-08-20T14:45:19;29.00;99.90
38500;DHT22;24269;51.894;4.622;2022-08-20T14:47:47;29.20;99.90
38500;DHT22;24269;51.894;4.622;2022-08-20T14:50:25;29.10;99.90
38500;DHT22;24269;51.894;4.622;2022-08-20T14:52:51;29.20;99.90
38500;DHT22;24269;51.894;4.622;2022-08-20T14:55:19;29.40;99.90
38500;DHT22;24269;51.894;4.622;2022-08-20T14:57:46;29.50;99.90
38500;DHT22;24269;51.894;4.622;2022-08-20T15:00:19;29.70;99.90
38500;DHT22;24269;51.894;4.622;2022-08-20T15:02:46;29.50;99.90
38500;DHT22;24269;51.894;4.622;2022-08-20T15:05:12;29.50;99.80
38500;DHT22;24269;51.894;4.622;2022-08-20T15:07:41;29.60;99.90
38500;DHT22;24269;51.894;4.622;2022-08-20T15:10:11;29.90;99.90
38500;DHT22;24269;51.894;4.622;2022-08-20T15:12:37;30.10;99.60
38500;DHT22;24269;51.894;4.622;2022-08-20T15:15:05;30.20;99.20
38500;DHT22;24269;51.894;4.622;2022-08-20T15:17:32;30.40;98.30
38500;DHT22;24269;51.894;4.622;2022-08-20T15:20:01;30.50;99.00
38500;DHT22;24269;51.894;4.622;2022-08-20T15:22:29;30.60;98.10
38500;DHT22;24269;51.894;4.622;2022-08-20T15:24:54;30.60;97.00
38500;DHT22;24269;51.894;4.622;2022-08-20T15:27:22;30.20;97.20
38500;DHT22;24269;51.894;4.622;2022-08-20T15:29:49;29.40;98.30
38500;DHT22;24269;51.894;4.622;2022-08-20T15:32:15;29.10;98.50
38500;DHT22;24269;51.894;4.622;2022-08-20T15:34:41;29.40;98.10
38500;DHT22;24269;51.894;4.622;2022-08-20T15:37:16;29.90;97.80
38500;DHT22;24269;51.894;4.622;2022-08-20T15:39:43;29.90;97.20
38500;DHT22;24269;51.894;4.622;2022-08-20T15:42:09;30.00;97.40
38500;DHT22;24269;51.894;4.622;2022-08-20T15:44:35;30.20;96.80
38500;DHT22;24269;51.894;4.622;2022-08-20T15:47:27;30.50;95.80
38500;DHT22;24269;51.894;4.622;2022-08-20T15:50:06;30.20;95.50
38500;DHT22;24269;51.894;4.622;2022-08-20T15:52:36;30.00;95.50
38500;DHT22;24269;51.894;4.622;2022-08-20T15:55:04;29.20;97.00
38500;DHT22;24269;51.894;4.622;2022-08-20T16:00:20;27.30;98.20